createdAt,value
2018-04-11T00:00:59.281Z,22.80
2018-04-11T00:01:59.278Z,23.70
2018-04-11T00:02:59.287Z,22.90
2018-04-11T00:03:59.295Z,22.30
2018-04-11T00:04:59.298Z,24.00
2018-04-11T00:05:59.301Z,24.10
2018-04-11T00:06:59.313Z,23.40
2018-04-11T00:07:59.325Z,23.90
2018-04-11T00:08:59.372Z,23.30
2018-04-11T00:09:59.310Z,24.00
2018-04-11T00:10:59.333Z,24.30
2018-04-11T00:11:59.322Z,23.00
2018-04-11T00:12:59.332Z,24.50
2018-04-11T00:13:59.331Z,24.50
2018-04-11T00:14:59.329Z,23.50
2018-04-11T00:15:59.330Z,23.00
2018-04-11T00:16:59.333Z,23.80
2018-04-11T00:17:59.347Z,24.10
2018-04-11T00:18:59.356Z,24.20
2018-04-11T00:19:59.355Z,25.40
2018-04-11T00:20:59.353Z,25.20
2018-04-11T00:21:59.344Z,24.80
2018-04-11T00:22:59.361Z,24.40
2018-04-11T00:23:59.374Z,24.30
2018-04-11T00:24:59.360Z,26.30
2018-04-11T00:25:59.368Z,28.20
2018-04-11T00:26:59.399Z,27.40
2018-04-11T00:27:59.378Z,29.60
2018-04-11T00:28:59.385Z,33.20
2018-04-11T00:29:59.384Z,33.00
2018-04-11T00:30:59.388Z,34.20
2018-04-11T00:31:59.456Z,34.40
2018-04-11T00:32:59.385Z,36.60
2018-04-11T00:33:59.392Z,35.30
2018-04-11T00:34:59.391Z,34.80
2018-04-11T00:35:59.397Z,35.10
2018-04-11T00:36:59.398Z,36.30
2018-04-11T00:37:59.403Z,35.10
2018-04-11T00:38:59.398Z,38.30
2018-04-11T00:39:59.406Z,36.80
2018-04-11T00:40:59.403Z,35.80
2018-04-11T00:41:59.411Z,38.40
2018-04-11T00:42:59.428Z,36.20
2018-04-11T00:43:59.432Z,37.90
2018-04-11T00:44:59.435Z,36.90
2018-04-11T00:45:59.426Z,37.20
2018-04-11T00:46:59.428Z,38.20
2018-04-11T00:47:59.441Z,39.30
2018-04-11T00:49:00.397Z,38.30
2018-04-11T00:49:59.451Z,36.60
2018-04-11T00:50:59.466Z,36.90
2018-04-11T00:51:59.453Z,36.90
2018-04-11T00:52:59.526Z,36.30
2018-04-11T00:53:59.483Z,37.90
2018-04-11T00:54:59.467Z,37.10
2018-04-11T00:55:59.465Z,38.50
2018-04-11T00:56:59.465Z,38.30
2018-04-11T00:57:59.467Z,39.00
2018-04-11T00:58:59.473Z,40.10
2018-04-11T00:59:59.469Z,39.60
2018-04-11T01:00:59.482Z,40.40
2018-04-11T01:01:59.490Z,39.90
2018-04-11T01:02:59.487Z,40.40
2018-04-11T01:03:59.496Z,40.50
2018-04-11T01:04:59.483Z,40.40
2018-04-11T01:05:59.494Z,39.70
2018-04-11T01:06:59.498Z,39.00
2018-04-11T01:07:59.510Z,40.00
2018-04-11T01:08:59.508Z,39.10
2018-04-11T01:09:59.501Z,41.30
2018-04-11T01:10:59.513Z,41.40
2018-04-11T01:11:59.535Z,40.40
2018-04-11T01:12:59.553Z,40.80
2018-04-11T01:13:59.536Z,40.90
2018-04-11T01:14:59.523Z,40.50
2018-04-11T01:15:59.535Z,41.50
2018-04-11T01:16:59.529Z,40.20
2018-04-11T01:17:59.532Z,42.20
2018-04-11T01:18:59.537Z,40.20
2018-04-11T01:19:59.558Z,42.20
2018-04-11T01:20:59.543Z,41.50
2018-04-11T01:21:59.547Z,41.20
2018-04-11T01:22:59.555Z,41.80
2018-04-11T01:23:59.543Z,40.20
2018-04-11T01:24:59.569Z,41.30
2018-04-11T01:25:59.571Z,40.40
2018-04-11T01:26:59.564Z,40.40
2018-04-11T01:27:59.555Z,40.60
2018-04-11T01:28:59.575Z,41.00
2018-04-11T01:29:59.569Z,40.20
2018-04-11T01:30:59.567Z,41.20
2018-04-11T01:31:59.577Z,42.20
2018-04-11T01:32:59.581Z,41.00
2018-04-11T01:33:59.591Z,41.10
2018-04-11T01:34:59.587Z,38.90
2018-04-11T01:35:59.595Z,40.20
2018-04-11T01:36:59.590Z,41.30
2018-04-11T01:37:59.598Z,39.60
2018-04-11T01:38:59.610Z,39.90
2018-04-11T01:39:59.600Z,41.00
2018-04-11T01:40:59.596Z,40.00
2018-04-11T01:41:59.625Z,38.00
2018-04-11T01:42:59.673Z,40.70
2018-04-11T01:43:59.605Z,40.60
2018-04-11T01:44:59.653Z,39.80
2018-04-11T01:45:59.623Z,41.20
2018-04-11T01:46:59.630Z,40.20
2018-04-11T01:47:59.630Z,40.10
2018-04-11T01:48:59.631Z,39.40
2018-04-11T01:49:59.629Z,39.10
2018-04-11T01:50:59.638Z,40.00
2018-04-11T01:51:59.635Z,40.40
2018-04-11T01:52:59.641Z,39.60
2018-04-11T01:53:59.648Z,39.10
2018-04-11T01:54:59.635Z,40.90
2018-04-11T01:55:59.661Z,39.40
2018-04-11T01:56:59.651Z,40.80
2018-04-11T01:57:59.666Z,41.20
2018-04-11T01:58:59.670Z,40.10
2018-04-11T01:59:59.664Z,39.70
2018-04-11T02:00:59.660Z,40.10
2018-04-11T02:01:59.662Z,40.20
2018-04-11T02:02:59.666Z,40.70
2018-04-11T02:03:59.676Z,39.70
2018-04-11T02:04:59.666Z,40.10
2018-04-11T02:05:59.679Z,39.00
2018-04-11T02:06:59.676Z,40.40
2018-04-11T02:07:59.689Z,41.00
2018-04-11T02:08:59.696Z,39.60
2018-04-11T02:09:59.702Z,39.80
2018-04-11T02:10:59.703Z,38.30
2018-04-11T02:11:59.695Z,39.80
2018-04-11T02:12:59.720Z,40.40
2018-04-11T02:13:59.707Z,40.70
2018-04-11T02:14:59.699Z,39.00
2018-04-11T02:15:59.702Z,39.90
2018-04-11T02:16:59.719Z,40.30
2018-04-11T02:17:59.719Z,40.10
2018-04-11T02:18:59.720Z,39.10
2018-04-11T02:19:59.715Z,39.60
2018-04-11T02:20:59.735Z,39.10
2018-04-11T02:21:59.735Z,40.00
2018-04-11T02:22:59.723Z,39.50
2018-04-11T02:23:59.729Z,39.40
2018-04-11T02:25:00.426Z,39.40
2018-04-11T02:25:59.731Z,39.60
2018-04-11T02:26:59.751Z,40.00
2018-04-11T02:27:59.746Z,39.30
2018-04-11T02:28:59.742Z,39.90
2018-04-11T02:29:59.745Z,40.80
2018-04-11T02:30:59.806Z,40.30
2018-04-11T02:31:59.774Z,40.10
2018-04-11T02:32:59.764Z,41.10
2018-04-11T02:33:59.757Z,40.00
2018-04-11T02:35:00.426Z,38.10
2018-04-11T02:35:59.768Z,39.10
2018-04-11T02:36:59.788Z,40.50
2018-04-11T02:37:59.765Z,39.50
2018-04-11T02:38:59.768Z,39.30
2018-04-11T02:39:59.788Z,38.70
2018-04-11T02:40:59.785Z,39.90
2018-04-11T02:41:59.784Z,39.20
2018-04-11T02:42:59.789Z,41.80
2018-04-11T02:43:59.794Z,40.10
2018-04-11T02:44:59.787Z,39.30
2018-04-11T02:45:59.799Z,40.30
2018-04-11T02:46:59.824Z,38.80
2018-04-11T02:47:59.816Z,40.80
2018-04-11T02:48:59.814Z,40.10
2018-04-11T02:49:59.801Z,40.10
2018-04-11T02:50:59.800Z,40.00
2018-04-11T02:51:59.807Z,41.30
2018-04-11T02:52:59.834Z,39.40
2018-04-11T02:53:59.907Z,40.10
2018-04-11T02:54:59.813Z,42.40
2018-04-11T02:55:59.811Z,40.50
2018-04-11T02:56:59.827Z,40.30
2018-04-11T02:57:59.840Z,40.30
2018-04-11T02:58:59.834Z,40.70
2018-04-11T02:59:59.830Z,40.20
2018-04-11T03:00:59.830Z,41.20
2018-04-11T03:01:59.839Z,42.30
2018-04-11T03:02:59.871Z,39.90
2018-04-11T03:03:59.846Z,40.70
2018-04-11T03:04:59.845Z,40.30
2018-04-11T03:05:59.839Z,39.10
2018-04-11T03:06:59.849Z,40.70
2018-04-11T03:07:59.852Z,39.50
2018-04-11T03:08:59.852Z,40.40
2018-04-11T03:09:59.858Z,40.20
2018-04-11T03:10:59.861Z,40.50
2018-04-11T03:11:59.872Z,40.60
2018-04-11T03:12:59.870Z,40.80
2018-04-11T03:13:59.875Z,39.20
2018-04-11T03:14:59.905Z,41.10
2018-04-11T03:15:59.873Z,39.90
2018-04-11T03:16:59.884Z,39.50
2018-04-11T03:17:59.882Z,38.00
2018-04-11T03:18:59.902Z,39.20
2018-04-11T03:19:59.879Z,37.80
2018-04-11T03:20:59.927Z,38.90
2018-04-11T03:21:59.898Z,37.40
2018-04-11T03:22:59.887Z,37.60
2018-04-11T03:24:35.512Z,37.20
2018-04-11T03:26:34.497Z,39.10
2018-04-11T03:28:08.495Z,37.40
2018-04-11T03:28:32.010Z,38.70
2018-04-11T03:29:32.011Z,38.10
2018-04-11T03:32:11.714Z,37.60
2018-04-11T03:46:59.789Z,36.40
2018-04-11T03:47:59.761Z,35.70
2018-04-11T03:49:00.252Z,38.10
2018-04-11T03:50:01.291Z,35.40
2018-04-11T03:51:06.756Z,35.30
2018-04-11T03:52:05.246Z,35.90
2018-04-11T03:52:59.796Z,36.50
2018-04-11T03:53:59.761Z,36.00
2018-04-11T03:54:59.780Z,35.40
2018-04-11T03:55:59.776Z,35.20
2018-04-11T03:57:59.773Z,35.50
2018-04-11T03:59:59.776Z,34.80
2018-04-11T04:02:31.935Z,34.80
2018-04-11T04:03:31.898Z,36.10
2018-04-11T04:04:31.907Z,34.60
2018-04-11T04:05:31.921Z,34.50
2018-04-11T04:06:31.898Z,34.30
2018-04-11T04:07:31.905Z,36.70
2018-04-11T04:08:31.896Z,34.60
2018-04-11T04:09:31.905Z,34.00
2018-04-11T04:10:31.910Z,34.80
2018-04-11T04:11:31.912Z,33.70
2018-04-11T04:12:31.921Z,35.50
2018-04-11T04:13:31.919Z,34.00
2018-04-11T04:14:31.921Z,34.70
2018-04-11T04:15:31.923Z,33.40
2018-04-11T04:16:31.926Z,35.70
2018-04-11T04:17:31.927Z,34.50
2018-04-11T04:18:32.883Z,35.70
2018-04-11T04:19:31.931Z,34.80
2018-04-11T04:20:31.932Z,33.10
2018-04-11T04:21:31.944Z,34.30
2018-04-11T04:22:31.943Z,34.80
2018-04-11T04:23:31.930Z,33.60
2018-04-11T04:24:31.944Z,35.70
2018-04-11T04:25:31.950Z,33.40
2018-04-11T04:26:31.953Z,33.40
2018-04-11T04:27:31.941Z,32.80
2018-04-11T04:28:31.952Z,33.90
2018-04-11T04:29:31.960Z,35.20
2018-04-11T04:30:32.005Z,32.90
2018-04-11T04:31:31.959Z,31.70
2018-04-11T04:32:31.962Z,33.00
2018-04-11T04:33:31.965Z,33.50
2018-04-11T04:34:31.969Z,33.40
2018-04-11T04:35:31.978Z,33.00
2018-04-11T04:36:31.970Z,33.60
2018-04-11T04:37:31.968Z,32.70
2018-04-11T04:38:32.896Z,33.50
2018-04-11T04:39:32.885Z,33.80
2018-04-11T04:40:31.975Z,33.00
2018-04-11T04:41:31.991Z,34.40
2018-04-11T04:42:31.983Z,33.70
2018-04-11T04:43:31.998Z,33.60
2018-04-11T04:44:31.993Z,32.60
2018-04-11T04:45:32.000Z,32.10
2018-04-11T04:46:32.007Z,33.50
2018-04-11T04:47:31.996Z,35.10
2018-04-11T04:48:32.006Z,31.50
2018-04-11T04:49:31.997Z,33.00
2018-04-11T04:50:31.997Z,33.40
2018-04-11T04:51:32.021Z,33.50
2018-04-11T04:52:32.015Z,32.40
2018-04-11T04:53:32.000Z,33.00
2018-04-11T04:54:32.022Z,33.00
2018-04-11T04:55:32.016Z,32.20
2018-04-11T04:56:32.006Z,32.90
2018-04-11T04:57:32.025Z,32.30
2018-04-11T04:58:32.025Z,34.40
2018-04-11T04:59:32.011Z,33.00
2018-04-11T05:00:32.033Z,31.90
2018-04-11T05:01:32.025Z,32.30
2018-04-11T05:02:32.028Z,32.50
2018-04-11T05:03:32.032Z,33.70
2018-04-11T05:04:32.035Z,32.80
2018-04-11T05:05:32.046Z,31.60
2018-04-11T05:06:32.894Z,33.30
2018-04-11T05:07:32.039Z,32.40
2018-04-11T05:10:05.132Z,32.30
2018-04-11T05:11:04.633Z,33.50
2018-04-11T05:12:05.135Z,33.20
2018-04-11T05:13:05.139Z,32.70
2018-04-11T05:14:04.153Z,33.20
2018-04-11T05:15:05.146Z,31.20
2018-04-11T05:16:06.141Z,32.80
2018-04-11T05:17:04.219Z,33.10
2018-04-11T05:18:05.136Z,31.50
2018-04-11T05:19:04.161Z,32.80
2018-04-11T05:20:05.163Z,31.30
2018-04-11T05:21:06.139Z,32.30
2018-04-11T05:22:06.134Z,32.10
2018-04-11T05:23:05.632Z,31.80
2018-04-11T05:24:05.148Z,31.20
2018-04-11T05:25:04.183Z,32.10
2018-04-11T05:26:04.719Z,31.90
2018-04-11T05:27:05.153Z,31.50
2018-04-11T05:28:05.143Z,32.40
2018-04-11T05:29:05.145Z,32.70
2018-04-11T05:30:05.136Z,33.60
2018-04-11T05:31:05.631Z,32.70
2018-04-11T05:32:05.136Z,31.40
2018-04-11T05:33:05.632Z,32.70
2018-04-11T05:34:05.138Z,32.00
2018-04-11T05:35:05.636Z,32.10
2018-04-11T05:36:04.239Z,31.30
2018-04-11T05:37:05.153Z,32.50
2018-04-11T05:38:05.141Z,31.60
2018-04-11T05:39:05.138Z,32.40
2018-04-11T05:40:04.282Z,31.60
2018-04-11T05:41:05.214Z,31.10
2018-04-11T05:42:05.140Z,32.20
2018-04-11T05:43:05.136Z,31.40
2018-04-11T05:44:05.137Z,31.00
2018-04-11T05:45:05.160Z,30.70
2018-04-11T05:46:04.220Z,32.00
2018-04-11T05:47:05.149Z,31.90
2018-04-11T05:48:04.216Z,33.00
2018-04-11T05:49:04.248Z,31.00
2018-04-11T05:50:04.228Z,30.70
2018-04-11T05:51:04.251Z,30.80
2018-04-11T05:52:05.144Z,30.80
2018-04-11T05:53:05.143Z,31.30
2018-04-11T05:54:04.238Z,30.20
2018-04-11T05:55:04.246Z,30.80
2018-04-11T05:56:04.247Z,30.10
2018-04-11T05:57:04.246Z,30.70
2018-04-11T05:58:04.264Z,30.40
2018-04-11T05:59:04.250Z,30.10
2018-04-11T06:00:04.260Z,29.40
2018-04-11T06:01:04.304Z,30.20
2018-04-11T06:02:04.271Z,31.30
2018-04-11T06:03:05.173Z,30.50
2018-04-11T06:04:04.273Z,31.40
2018-04-11T06:05:04.263Z,32.70
2018-04-11T06:06:04.261Z,29.50
2018-04-11T06:07:04.279Z,29.20
2018-04-11T06:08:04.274Z,30.10
2018-04-11T06:09:04.263Z,30.60
2018-04-11T06:10:04.291Z,30.10
2018-04-11T06:11:04.282Z,30.40
2018-04-11T06:12:04.300Z,29.40
2018-04-11T06:13:04.318Z,30.50
2018-04-11T06:14:04.820Z,29.80
2018-04-11T06:15:04.311Z,30.00
2018-04-11T06:16:04.306Z,29.60
2018-04-11T06:17:04.359Z,29.30
2018-04-11T06:18:04.296Z,29.10
2018-04-11T06:19:04.309Z,29.00
2018-04-11T06:20:04.310Z,28.90
2018-04-11T06:21:04.316Z,28.00
2018-04-11T06:22:04.312Z,28.70
2018-04-11T06:23:04.337Z,27.70
2018-04-11T06:24:05.148Z,27.20
2018-04-11T06:25:04.309Z,27.90
2018-04-11T06:26:04.419Z,28.60
2018-04-11T06:27:04.334Z,27.70
2018-04-11T06:28:04.500Z,28.30
2018-04-11T06:29:04.356Z,27.30
2018-04-11T06:30:04.344Z,26.20
2018-04-11T06:31:04.359Z,27.60
2018-04-11T06:32:04.360Z,26.50
2018-04-11T06:33:04.340Z,26.80
2018-04-11T06:34:04.372Z,27.50
2018-04-11T06:35:04.364Z,27.10
2018-04-11T06:36:04.380Z,27.10
2018-04-11T06:37:04.396Z,26.70
2018-04-11T06:38:04.416Z,26.50
2018-04-11T06:39:04.388Z,25.30
2018-04-11T06:40:04.388Z,26.60
2018-04-11T06:41:04.434Z,25.70
2018-04-11T06:42:04.432Z,25.70
2018-04-11T06:43:04.386Z,26.80
2018-04-11T06:44:04.398Z,26.20
2018-04-11T06:45:04.424Z,25.60
2018-04-11T06:46:04.462Z,26.50
2018-04-11T06:47:05.250Z,26.10
2018-04-11T06:48:04.461Z,27.60
2018-04-11T06:49:06.867Z,27.40
2018-04-11T06:50:04.466Z,26.60
2018-04-11T06:51:04.504Z,26.50
2018-04-11T06:52:04.598Z,26.70
2018-04-11T06:53:04.421Z,26.90
2018-04-11T06:54:04.477Z,26.50
2018-04-11T06:55:04.437Z,25.80
2018-04-11T06:56:04.460Z,26.50
2018-04-11T06:57:04.459Z,26.80
2018-04-11T06:58:04.452Z,26.30
2018-04-11T06:59:04.462Z,26.00
2018-04-11T07:00:04.479Z,27.30
2018-04-11T07:01:04.592Z,25.30
2018-04-11T07:02:04.489Z,27.10
2018-04-11T07:03:04.497Z,26.30
2018-04-11T07:04:04.560Z,25.50
2018-04-11T07:05:04.508Z,26.10
2018-04-11T07:06:04.511Z,27.30
2018-04-11T07:07:04.537Z,25.70
2018-04-11T07:08:04.511Z,26.10
2018-04-11T07:09:04.504Z,25.80
2018-04-11T07:10:04.523Z,25.60
2018-04-11T07:11:04.544Z,26.20
2018-04-11T07:12:05.257Z,26.40
2018-04-11T07:13:04.538Z,25.60
2018-04-11T07:14:05.261Z,26.40
2018-04-11T07:15:04.563Z,26.40
2018-04-11T07:16:04.549Z,25.20
2018-04-11T07:17:04.541Z,25.70
2018-04-11T07:18:04.558Z,24.70
2018-04-11T07:19:04.639Z,25.00
2018-04-11T07:20:04.621Z,25.60
2018-04-11T07:21:04.595Z,25.20
2018-04-11T07:22:04.598Z,24.20
2018-04-11T07:23:04.583Z,24.80
2018-04-11T07:24:04.594Z,24.70
2018-04-11T07:25:04.604Z,25.50
2018-04-11T07:26:04.598Z,25.00
2018-04-11T07:27:04.832Z,25.50
2018-04-11T07:28:04.647Z,25.70
2018-04-11T07:29:04.637Z,26.40
2018-04-11T07:30:04.687Z,25.50
2018-04-11T07:31:04.658Z,24.70
2018-04-11T07:32:04.666Z,24.90
2018-04-11T07:33:04.699Z,26.40
2018-04-11T07:34:05.331Z,24.50
2018-04-11T07:37:00.989Z,25.00
2018-04-11T07:37:59.995Z,24.40
2018-04-11T07:40:31.633Z,24.40
2018-04-11T07:41:31.614Z,25.70
2018-04-11T07:42:31.616Z,25.30
2018-04-11T07:43:31.637Z,25.10
2018-04-11T07:44:31.816Z,25.80
2018-04-11T07:45:31.649Z,24.60
2018-04-11T07:46:31.659Z,23.80
2018-04-11T07:47:32.156Z,25.20
2018-04-11T07:48:31.637Z,24.10
2018-04-11T07:49:31.638Z,24.40
2018-04-11T07:50:31.640Z,24.50
2018-04-11T07:51:31.685Z,23.60
2018-04-11T07:52:31.709Z,23.80
2018-04-11T07:53:31.762Z,24.70
2018-04-11T07:54:32.839Z,24.20
2018-04-11T07:55:31.685Z,24.10
2018-04-11T07:56:31.725Z,23.80
2018-04-11T07:57:31.713Z,23.00
2018-04-11T07:58:31.762Z,23.90
2018-04-11T07:59:31.778Z,23.50
2018-04-11T08:00:31.768Z,23.70
2018-04-11T08:01:31.764Z,23.40
2018-04-11T08:02:31.767Z,22.80
2018-04-11T08:03:31.817Z,23.40
2018-04-11T08:04:31.792Z,24.00
2018-04-11T08:05:31.774Z,22.30
2018-04-11T08:06:31.804Z,22.70
2018-04-11T08:07:31.807Z,22.90
2018-04-11T08:08:31.837Z,22.90
2018-04-11T08:09:31.838Z,23.40
2018-04-11T08:10:32.568Z,22.60
2018-04-11T08:11:31.889Z,23.50
2018-04-11T08:12:31.842Z,23.60
2018-04-11T08:13:31.851Z,22.50
2018-04-11T08:14:31.881Z,24.10
2018-04-11T08:15:31.958Z,23.20
2018-04-11T08:16:31.905Z,23.00
2018-04-11T08:17:31.895Z,23.10
2018-04-11T08:18:31.895Z,22.60
2018-04-11T08:19:31.994Z,22.60
2018-04-11T08:20:31.923Z,23.10
2018-04-11T08:21:31.942Z,22.40
2018-04-11T08:22:31.965Z,21.50
2018-04-11T08:23:32.009Z,21.60
2018-04-11T08:24:32.485Z,23.20
2018-04-11T08:25:32.585Z,22.10
2018-04-11T08:26:32.532Z,21.60
2018-04-11T08:27:34.321Z,22.10
2018-04-11T08:28:32.136Z,22.40
2018-04-11T08:29:32.014Z,23.10
2018-04-11T08:30:32.080Z,22.20
2018-04-11T08:31:32.574Z,22.00
2018-04-11T08:32:32.064Z,21.20
2018-04-11T08:33:32.078Z,21.70
2018-04-11T08:34:32.070Z,20.80
2018-04-11T08:35:32.095Z,20.90
2018-04-11T08:36:32.116Z,22.10
2018-04-11T08:37:32.100Z,20.70
2018-04-11T08:38:32.114Z,21.10
2018-04-11T08:39:32.140Z,20.60
2018-04-11T08:40:32.378Z,20.90
2018-04-11T08:41:32.218Z,20.40
2018-04-11T08:42:32.754Z,20.90
2018-04-11T08:43:32.201Z,20.50
2018-04-11T08:44:32.257Z,21.50
2018-04-11T08:45:32.244Z,20.00
2018-04-11T08:46:32.208Z,20.30
2018-04-11T08:47:32.318Z,20.40
2018-04-11T08:48:35.483Z,20.70
2018-04-11T08:49:32.533Z,21.10
2018-04-11T08:50:32.613Z,21.30
2018-04-11T08:51:32.385Z,20.10
2018-04-11T08:52:32.405Z,20.90
2018-04-11T08:53:32.373Z,19.80
2018-04-11T08:54:32.346Z,20.40
2018-04-11T08:55:32.489Z,21.00
2018-04-11T08:56:32.369Z,21.20
2018-04-11T08:57:33.106Z,20.80
2018-04-11T08:58:32.502Z,21.40
2018-04-11T08:59:32.619Z,21.00
2018-04-11T09:00:32.601Z,20.90
2018-04-11T09:01:32.472Z,20.60
2018-04-11T09:02:32.537Z,21.00
2018-04-11T09:03:32.537Z,20.70
2018-04-11T09:04:32.702Z,21.60
2018-04-11T09:05:32.627Z,20.70
2018-04-11T09:06:32.537Z,20.50
2018-04-11T09:07:32.683Z,20.50
2018-04-11T09:08:32.668Z,21.90
2018-04-11T09:09:32.811Z,20.60
2018-04-11T09:10:33.117Z,21.20
2018-04-11T09:11:32.784Z,21.30
2018-04-11T09:12:33.110Z,20.60
2018-04-11T09:13:32.643Z,21.70
2018-04-11T09:14:32.668Z,20.90
2018-04-11T09:15:32.728Z,20.40
2018-04-11T09:16:32.838Z,21.20
2018-04-11T09:17:32.799Z,21.10
2018-04-11T09:18:33.466Z,21.30
2018-04-11T09:19:32.763Z,21.00
2018-04-11T09:20:32.836Z,20.80
2018-04-11T09:21:32.702Z,20.10
2018-04-11T09:22:32.821Z,20.20
2018-04-11T09:23:32.965Z,20.60
2018-04-11T09:24:32.854Z,19.70
2018-04-11T09:25:32.823Z,20.80
2018-04-11T09:26:32.902Z,21.60
2018-04-11T09:27:33.619Z,21.10
2018-04-11T09:28:32.789Z,19.70
2018-04-11T09:29:33.622Z,21.50
2018-04-11T09:30:32.882Z,20.60
2018-04-11T09:31:32.822Z,20.60
2018-04-11T09:32:32.994Z,20.70
2018-04-11T09:33:32.976Z,21.40
2018-04-11T09:34:33.608Z,21.20
2018-04-11T09:35:33.525Z,20.20
2018-04-11T09:36:33.127Z,20.20
2018-04-11T09:37:33.055Z,21.30
2018-04-11T09:38:32.977Z,20.20
2018-04-11T09:39:33.019Z,21.10
2018-04-11T09:40:33.335Z,21.50
2018-04-11T09:41:33.149Z,20.60
2018-04-11T09:42:33.624Z,20.90
2018-04-11T09:43:33.158Z,20.10
2018-04-11T09:45:33.123Z,20.50
2018-04-11T09:46:33.187Z,21.00
2018-04-11T09:47:33.152Z,20.30
2018-04-11T09:48:33.171Z,21.10
2018-04-11T09:49:33.219Z,21.20
2018-04-11T09:50:33.339Z,21.40
2018-04-11T09:51:33.185Z,21.30
2018-04-11T09:52:33.245Z,20.60
2018-04-11T09:53:33.247Z,21.60
2018-04-11T09:54:33.222Z,20.60
2018-04-11T09:55:33.923Z,20.70
2018-04-11T09:56:33.433Z,20.40
2018-04-11T09:57:34.201Z,21.50
2018-04-11T09:58:33.804Z,21.70
2018-04-11T09:59:33.391Z,21.10
2018-04-11T10:00:33.309Z,22.50
2018-04-11T10:01:33.344Z,21.20
2018-04-11T10:02:33.505Z,20.40
2018-04-11T10:03:33.343Z,21.80
2018-04-11T10:04:33.365Z,20.80
2018-04-11T10:05:33.389Z,21.00
2018-04-11T10:06:34.142Z,21.10
2018-04-11T10:07:35.147Z,21.50
2018-04-11T10:08:33.454Z,22.10
2018-04-11T10:09:33.487Z,21.80
2018-04-11T10:10:33.471Z,20.90
2018-04-11T10:11:33.595Z,20.40
2018-04-11T10:12:33.524Z,20.90
2018-04-11T10:13:33.505Z,21.40
2018-04-11T10:14:33.600Z,21.90
2018-04-11T10:15:33.556Z,21.30
2018-04-11T10:16:33.563Z,21.70
2018-04-11T10:17:33.668Z,21.20
2018-04-11T10:18:33.615Z,22.30
2018-04-11T10:19:34.150Z,21.30
2018-04-11T10:20:33.606Z,20.90
2018-04-11T10:21:33.709Z,20.60
2018-04-11T10:22:33.667Z,19.80
2018-04-11T10:23:33.709Z,20.60
2018-04-11T10:24:33.680Z,20.30
2018-04-11T10:25:33.690Z,21.00
2018-04-11T10:26:33.751Z,20.80
2018-04-11T10:27:33.813Z,20.10
2018-04-11T10:28:33.826Z,21.20
2018-04-11T10:29:34.672Z,20.80
2018-04-11T10:30:33.817Z,21.50
2018-04-11T10:31:34.669Z,20.90
2018-04-11T10:32:33.919Z,22.30
2018-04-11T10:33:33.894Z,22.00
2018-04-11T10:34:33.875Z,22.80
2018-04-11T10:35:33.953Z,21.60
2018-04-11T10:36:33.984Z,22.90
2018-04-11T10:37:33.939Z,22.20
2018-04-11T10:38:33.940Z,21.70
2018-04-11T10:39:34.027Z,20.10
2018-04-11T10:40:33.986Z,21.70
2018-04-11T10:41:34.067Z,22.00
2018-04-11T10:42:33.973Z,22.70
2018-04-11T10:43:34.102Z,22.10
2018-04-11T10:44:34.208Z,22.60
2018-04-11T10:45:34.049Z,23.40
2018-04-11T10:46:34.668Z,22.90
2018-04-11T10:47:34.082Z,23.30
2018-04-11T10:48:34.076Z,23.10
2018-04-11T10:49:34.056Z,23.80
2018-04-11T10:50:34.178Z,23.40
2018-04-11T10:51:34.129Z,23.70
2018-04-11T10:52:34.177Z,23.80
2018-04-11T10:53:34.254Z,24.40
2018-04-11T10:54:34.215Z,24.00
2018-04-11T10:57:46.613Z,22.50
